createdAt,value
2023-04-28T00:00:56.037Z,2.20
2023-04-28T00:03:24.195Z,2.10
2023-04-28T00:05:54.537Z,2.00
2023-04-28T00:08:23.755Z,2.00
2023-04-28T00:10:51.840Z,1.90
2023-04-28T00:13:20.269Z,1.90
2023-04-28T00:15:48.310Z,1.90
2023-04-28T00:18:17.739Z,1.90
2023-04-28T00:20:46.044Z,1.80
2023-04-28T00:23:14.196Z,1.80
2023-04-28T00:25:42.223Z,1.80
2023-04-28T00:28:11.597Z,1.80
2023-04-28T00:30:39.671Z,1.80
2023-04-28T00:33:07.877Z,1.70
2023-04-28T00:35:37.379Z,1.60
2023-04-28T00:38:05.553Z,1.60
2023-04-28T00:40:37.046Z,1.50
2023-04-28T00:43:05.820Z,1.50
2023-04-28T00:45:34.037Z,1.50
2023-04-28T00:48:02.149Z,1.50
2023-04-28T00:50:30.337Z,1.40
2023-04-28T00:53:01.219Z,1.40
2023-04-28T00:55:32.701Z,1.30
2023-04-28T00:58:00.877Z,1.30
2023-04-28T01:00:28.861Z,1.20
2023-04-28T01:02:58.112Z,1.30
2023-04-28T01:05:27.930Z,1.30
2023-04-28T01:07:56.212Z,1.30
2023-04-28T01:10:25.867Z,1.20
2023-04-28T01:12:54.640Z,1.30
2023-04-28T01:15:23.202Z,1.30
2023-04-28T01:17:54.294Z,1.20
2023-04-28T01:20:22.432Z,1.20
2023-04-28T01:22:50.844Z,1.20
2023-04-28T01:25:24.164Z,1.20
2023-04-28T01:27:52.819Z,1.20
2023-04-28T01:30:21.097Z,1.20
2023-04-28T01:32:49.535Z,1.20
2023-04-28T01:35:17.674Z,1.10
2023-04-28T01:37:45.959Z,1.10
2023-04-28T01:40:14.721Z,1.10
2023-04-28T01:42:44.167Z,1.10
2023-04-28T01:45:12.857Z,1.10
2023-04-28T01:47:40.966Z,1.00
2023-04-28T01:50:09.465Z,1.00
2023-04-28T01:52:37.449Z,1.00
2023-04-28T01:55:06.528Z,1.00
2023-04-28T01:57:36.084Z,1.00
2023-04-28T02:00:07.419Z,1.00
2023-04-28T02:02:39.045Z,0.90
2023-04-28T02:05:07.870Z,0.90
2023-04-28T02:07:36.358Z,0.80
2023-04-28T02:10:05.851Z,0.80
2023-04-28T02:12:33.944Z,0.80
2023-04-28T02:15:02.085Z,0.70
2023-04-28T02:17:32.795Z,0.80
2023-04-28T02:20:00.817Z,0.80
2023-04-28T02:22:28.769Z,0.80
2023-04-28T02:24:56.732Z,0.80
2023-04-28T02:27:24.782Z,0.80
2023-04-28T02:29:52.788Z,0.80
2023-04-28T02:32:20.875Z,0.80
2023-04-28T02:34:55.713Z,0.70
2023-04-28T02:37:24.818Z,0.60
2023-04-28T02:39:53.350Z,0.60
2023-04-28T02:42:22.281Z,0.60
2023-04-28T02:44:50.349Z,0.50
2023-04-28T02:47:18.284Z,0.50
2023-04-28T02:49:46.680Z,0.50
2023-04-28T02:52:16.640Z,0.40
2023-04-28T02:54:48.698Z,0.40
2023-04-28T02:57:17.903Z,0.40
2023-04-28T02:59:46.215Z,0.40
2023-04-28T03:02:14.786Z,0.40
2023-04-28T03:04:42.843Z,0.40
2023-04-28T03:07:10.925Z,0.50
2023-04-28T03:09:42.270Z,0.40
2023-04-28T03:12:10.448Z,0.40
2023-04-28T03:14:38.414Z,0.40
2023-04-28T03:17:06.435Z,0.50
2023-04-28T03:19:34.498Z,0.50
2023-04-28T03:22:02.509Z,0.60
2023-04-28T03:24:32.797Z,0.60
2023-04-28T03:27:03.754Z,0.60
2023-04-28T03:29:32.117Z,0.60
2023-04-28T03:32:00.155Z,0.50
2023-04-28T03:34:28.588Z,0.50
2023-04-28T03:36:56.687Z,0.60
2023-04-28T03:39:29.601Z,0.70
2023-04-28T03:41:57.974Z,0.70
2023-04-28T03:44:53.591Z,0.70
2023-04-28T03:47:22.095Z,0.80
2023-04-28T03:49:50.346Z,1.00
2023-04-28T03:52:18.424Z,1.00
2023-04-28T03:54:46.948Z,1.10
2023-04-28T03:57:14.957Z,1.20
2023-04-28T03:59:42.922Z,1.30
2023-04-28T04:02:13.399Z,1.30
2023-04-28T04:04:41.533Z,1.40
2023-04-28T04:07:10.273Z,1.30
2023-04-28T04:09:38.326Z,1.30
2023-04-28T04:12:08.090Z,1.40
2023-04-28T04:14:36.091Z,1.40
2023-04-28T04:17:04.054Z,1.40
2023-04-28T04:19:33.880Z,1.40
2023-04-28T04:22:01.928Z,1.50
2023-04-28T04:24:30.061Z,1.50
2023-04-28T04:26:58.828Z,1.50
2023-04-28T04:29:37.774Z,1.50
2023-04-28T04:32:14.574Z,1.60
2023-04-28T04:34:54.018Z,1.70
2023-04-28T04:37:24.300Z,1.70
2023-04-28T04:40:03.452Z,1.80
2023-04-28T04:42:38.295Z,2.00
2023-04-28T04:45:15.851Z,2.20
2023-04-28T04:47:49.114Z,2.40
2023-04-28T04:50:26.532Z,2.60
2023-04-28T04:52:57.773Z,2.80
2023-04-28T04:55:31.113Z,3.10
2023-04-28T04:58:00.129Z,3.30
2023-04-28T05:00:59.243Z,3.40
2023-04-28T05:03:30.068Z,3.60
2023-04-28T05:06:05.119Z,3.80
2023-04-28T05:08:50.274Z,3.90
2023-04-28T05:11:21.964Z,4.00
2023-04-28T05:13:51.407Z,4.10
2023-04-28T05:16:25.078Z,4.20
2023-04-28T05:19:22.265Z,4.40
2023-04-28T05:21:55.382Z,4.40
2023-04-28T05:24:26.555Z,4.60
2023-04-28T05:26:55.995Z,4.70
2023-04-28T05:29:24.832Z,4.80
2023-04-28T05:31:52.937Z,4.90
2023-04-28T05:34:23.512Z,5.00
2023-04-28T05:36:53.607Z,5.00
2023-04-28T05:39:26.177Z,5.10
2023-04-28T05:41:56.455Z,5.20
2023-04-28T05:44:24.521Z,5.40
2023-04-28T05:46:52.902Z,5.50
2023-04-28T05:49:26.021Z,5.60
2023-04-28T05:51:55.571Z,5.60
2023-04-28T05:54:23.713Z,5.70
2023-04-28T05:56:54.660Z,5.80
2023-04-28T05:59:23.016Z,5.90
2023-04-28T06:01:51.852Z,6.00
2023-04-28T06:04:20.219Z,6.10
2023-04-28T06:06:50.618Z,6.20
2023-04-28T06:09:20.254Z,6.20
2023-04-28T06:11:48.428Z,6.40
2023-04-28T06:14:16.686Z,6.40
2023-04-28T06:16:45.035Z,6.50
2023-04-28T06:19:21.574Z,6.70
2023-04-28T06:21:50.422Z,6.80
2023-04-28T06:24:18.724Z,6.90
2023-04-28T06:26:48.283Z,7.00
2023-04-28T06:29:16.290Z,7.10
2023-04-28T06:31:44.272Z,7.20
2023-04-28T06:34:12.348Z,7.40
2023-04-28T06:36:41.821Z,7.50
2023-04-28T06:39:09.911Z,7.70
2023-04-28T06:41:37.869Z,7.80
2023-04-28T06:44:06.621Z,8.00
2023-04-28T06:46:37.460Z,8.10
2023-04-28T06:49:05.643Z,8.20
2023-04-28T06:51:33.641Z,8.40
2023-04-28T06:54:04.138Z,8.50
2023-04-28T06:56:32.188Z,8.70
2023-04-28T06:59:00.278Z,8.80
2023-04-28T07:01:28.530Z,8.90
2023-04-28T07:03:56.764Z,9.00
2023-04-28T07:06:25.022Z,9.20
2023-04-28T07:08:53.309Z,9.30
2023-04-28T07:11:23.396Z,9.30
2023-04-28T07:13:51.769Z,9.50
2023-04-28T07:16:21.538Z,9.60
2023-04-28T07:18:49.680Z,9.60
2023-04-28T07:21:17.654Z,9.80
2023-04-28T07:23:45.977Z,9.90
2023-04-28T07:26:16.438Z,9.90
2023-04-28T07:28:46.645Z,10.10
2023-04-28T07:31:14.764Z,10.20
2023-04-28T07:33:42.799Z,10.40
2023-04-28T07:36:11.078Z,10.80
2023-04-28T07:38:39.230Z,11.20
2023-04-28T07:41:10.940Z,11.50
2023-04-28T07:43:39.903Z,11.50
2023-04-28T07:46:09.975Z,11.30
2023-04-28T07:48:38.338Z,11.10
2023-04-28T07:51:06.588Z,10.90
2023-04-28T07:53:35.194Z,11.60
2023-04-28T07:56:03.353Z,12.40
2023-04-28T07:58:32.184Z,12.60
2023-04-28T08:01:00.281Z,12.50
2023-04-28T08:03:30.059Z,12.40
2023-04-28T08:05:59.192Z,12.70
2023-04-28T08:08:27.207Z,13.20
2023-04-28T08:10:55.202Z,13.20
2023-04-28T08:13:23.180Z,13.20
2023-04-28T08:15:51.566Z,13.20
2023-04-28T08:18:19.703Z,13.10
2023-04-28T08:20:48.999Z,12.90
2023-04-28T08:23:17.068Z,12.60
2023-04-28T08:25:45.143Z,12.40
2023-04-28T08:28:13.143Z,12.00
2023-04-28T08:30:41.172Z,12.10
2023-04-28T08:33:09.318Z,12.60
2023-04-28T08:35:37.450Z,13.20
2023-04-28T08:38:08.279Z,13.70
2023-04-28T08:40:36.947Z,14.40
2023-04-28T08:43:04.995Z,15.10
2023-04-28T08:45:42.518Z,15.40
2023-04-28T08:48:19.089Z,15.50
2023-04-28T08:50:51.296Z,15.60
2023-04-28T08:53:25.252Z,16.00
2023-04-28T08:55:56.859Z,16.30
2023-04-28T08:58:25.463Z,16.50
2023-04-28T09:00:54.468Z,16.10
2023-04-28T09:03:22.967Z,15.30
2023-04-28T09:05:51.428Z,15.20
2023-04-28T09:08:19.403Z,15.30
2023-04-28T09:10:48.739Z,16.10
2023-04-28T09:13:26.170Z,17.00
2023-04-28T09:16:01.485Z,16.90
2023-04-28T09:18:30.125Z,17.60
2023-04-28T09:21:05.385Z,17.60
2023-04-28T09:23:34.600Z,16.80
2023-04-28T09:26:06.427Z,17.00
2023-04-28T09:28:36.175Z,17.40
2023-04-28T09:31:04.380Z,17.80
2023-04-28T09:33:32.659Z,18.00
2023-04-28T09:36:00.808Z,17.70
2023-04-28T09:38:28.912Z,18.10
2023-04-28T09:40:58.833Z,18.00
2023-04-28T09:43:30.809Z,17.90
2023-04-28T09:46:01.927Z,17.60
2023-04-28T09:48:31.975Z,17.30
2023-04-28T09:51:00.957Z,17.10
2023-04-28T09:53:29.562Z,16.40
2023-04-28T09:55:59.222Z,15.80
2023-04-28T09:58:29.830Z,15.10
2023-04-28T10:00:59.226Z,14.40
2023-04-28T10:03:30.308Z,13.90
2023-04-28T10:05:59.566Z,13.40
2023-04-28T10:08:28.546Z,13.40
2023-04-28T10:10:57.843Z,14.20
2023-04-28T10:13:26.556Z,15.20
2023-04-28T10:15:58.179Z,15.80
2023-04-28T10:18:27.372Z,16.50
2023-04-28T10:21:01.169Z,17.00
2023-04-28T10:23:59.674Z,17.40
2023-04-28T10:26:52.549Z,17.80
2023-04-28T10:29:24.912Z,18.20
2023-04-28T10:32:23.020Z,18.80
2023-04-28T10:34:51.650Z,18.70
2023-04-28T10:37:20.026Z,18.90
2023-04-28T10:40:20.967Z,18.60
2023-04-28T10:42:56.345Z,18.60
2023-04-28T10:46:03.935Z,18.70
2023-04-28T10:48:56.205Z,17.60
2023-04-28T10:51:31.965Z,16.50
2023-04-28T10:54:20.033Z,15.70
2023-04-28T10:57:17.387Z,15.10
2023-04-28T10:59:45.496Z,15.40
2023-04-28T11:02:50.244Z,15.80
2023-04-28T11:05:20.634Z,16.60
2023-04-28T11:08:34.468Z,16.90
2023-04-28T11:11:19.418Z,16.90
2023-04-28T11:13:48.109Z,17.20
2023-04-28T11:16:18.319Z,17.90
2023-04-28T11:18:58.980Z,17.90
2023-04-28T11:21:31.250Z,17.40
2023-04-28T11:23:59.932Z,16.20
2023-04-28T11:26:29.103Z,16.60
2023-04-28T11:28:58.928Z,16.50
2023-04-28T11:31:29.005Z,15.90
2023-04-28T11:34:01.334Z,15.70
2023-04-28T11:36:39.192Z,15.40
2023-04-28T11:39:08.698Z,15.00
2023-04-28T11:41:37.451Z,14.70
2023-04-28T11:44:12.591Z,14.40
2023-04-28T11:46:47.040Z,14.40
2023-04-28T11:49:15.378Z,14.90
2023-04-28T11:51:46.881Z,15.90
2023-04-28T11:54:15.078Z,16.70
2023-04-28T11:56:44.785Z,17.50
2023-04-28T11:59:14.144Z,18.10
2023-04-28T12:01:49.827Z,18.20
2023-04-28T12:04:29.827Z,18.40
2023-04-28T12:07:04.798Z,19.00
2023-04-28T12:09:33.604Z,18.50
2023-04-28T12:12:04.594Z,18.00
2023-04-28T12:14:35.373Z,17.70
2023-04-28T12:17:04.158Z,18.00
2023-04-28T12:19:44.813Z,18.50
2023-04-28T12:22:17.492Z,18.70
2023-04-28T12:24:46.364Z,18.80
2023-04-28T12:27:20.315Z,19.10
2023-04-28T12:29:48.709Z,19.20
2023-04-28T12:32:17.411Z,18.60
2023-04-28T12:34:46.936Z,18.00
2023-04-28T12:37:17.025Z,18.00
2023-04-28T12:39:45.556Z,18.30
2023-04-28T12:42:13.868Z,18.00
2023-04-28T12:44:41.795Z,17.10
2023-04-28T12:47:11.078Z,16.30
2023-04-28T12:49:39.787Z,15.80
2023-04-28T12:52:07.976Z,15.70
2023-04-28T12:54:37.543Z,16.20
2023-04-28T12:57:06.627Z,16.80
2023-04-28T12:59:34.793Z,17.40
2023-04-28T13:02:02.985Z,18.00
2023-04-28T13:04:31.566Z,18.50
2023-04-28T13:06:59.985Z,18.80
2023-04-28T13:09:28.433Z,18.70
2023-04-28T13:11:58.628Z,18.50
2023-04-28T13:14:28.006Z,17.80
2023-04-28T13:16:56.196Z,17.40
2023-04-28T13:19:24.197Z,16.50
2023-04-28T13:21:52.301Z,16.30
2023-04-28T13:24:20.468Z,16.20
2023-04-28T13:26:48.550Z,16.60
2023-04-28T13:29:18.196Z,17.20
2023-04-28T13:31:46.338Z,17.60
2023-04-28T13:34:16.438Z,18.00
2023-04-28T13:36:44.808Z,18.20
2023-04-28T13:39:14.587Z,18.20
2023-04-28T13:41:42.905Z,18.60
2023-04-28T13:44:10.982Z,18.60
2023-04-28T13:46:40.337Z,18.60
2023-04-28T13:49:10.550Z,17.70
2023-04-28T13:51:38.937Z,17.10
2023-04-28T13:54:08.864Z,16.20
2023-04-28T13:56:37.459Z,15.80
2023-04-28T13:59:05.670Z,15.80
2023-04-28T14:01:33.886Z,15.70
2023-04-28T14:04:03.427Z,15.50
2023-04-28T14:06:33.663Z,15.50
2023-04-28T14:09:03.518Z,15.50
2023-04-28T14:11:31.568Z,15.30
2023-04-28T14:13:59.700Z,15.20
2023-04-28T14:16:28.056Z,15.00
2023-04-28T14:18:56.042Z,14.90
2023-04-28T14:21:25.719Z,15.40
2023-04-28T14:23:56.083Z,16.00
2023-04-28T14:26:39.656Z,16.70
2023-04-28T14:29:12.982Z,16.90
2023-04-28T14:31:41.366Z,16.80
2023-04-28T14:34:09.522Z,16.80
2023-04-28T14:36:39.367Z,16.90
2023-04-28T14:39:07.556Z,17.00
2023-04-28T14:41:35.465Z,17.20
2023-04-28T14:44:03.547Z,17.10
2023-04-28T14:46:31.674Z,16.70
2023-04-28T14:48:59.776Z,16.90
2023-04-28T14:51:27.753Z,16.70
2023-04-28T14:53:57.464Z,16.70
2023-04-28T14:56:25.516Z,16.80
2023-04-28T14:58:54.186Z,17.00
2023-04-28T15:01:22.261Z,17.00
2023-04-28T15:03:50.554Z,17.20
2023-04-28T15:06:18.714Z,17.40
2023-04-28T15:08:47.528Z,16.70
2023-04-28T15:11:16.914Z,16.10
2023-04-28T15:13:44.992Z,16.10
2023-04-28T15:16:15.610Z,16.20
2023-04-28T15:18:44.149Z,16.60
2023-04-28T15:21:12.223Z,17.10
2023-04-28T15:23:40.609Z,17.30
2023-04-28T15:26:10.758Z,17.40
2023-04-28T15:28:40.153Z,17.50
2023-04-28T15:31:08.205Z,17.70
2023-04-28T15:33:36.365Z,17.60
2023-04-28T15:36:05.154Z,17.40
2023-04-28T15:38:34.084Z,17.40
2023-04-28T15:41:02.356Z,17.40
2023-04-28T15:43:30.306Z,17.50
2023-04-28T15:46:01.006Z,17.80
2023-04-28T15:48:29.219Z,17.70
2023-04-28T15:50:57.418Z,17.70
2023-04-28T15:53:25.932Z,17.30
2023-04-28T15:55:53.973Z,17.20
2023-04-28T15:58:22.045Z,17.10
2023-04-28T16:00:50.059Z,16.80
2023-04-28T16:03:19.757Z,16.40
2023-04-28T16:05:48.115Z,16.30
2023-04-28T16:08:16.689Z,16.10
2023-04-28T16:10:44.905Z,15.80
2023-04-28T16:13:13.113Z,15.40
2023-04-28T16:15:41.862Z,15.20
2023-04-28T16:18:10.230Z,15.00
2023-04-28T16:20:39.660Z,14.90
2023-04-28T16:23:07.834Z,14.80
2023-04-28T16:25:36.434Z,14.70
2023-04-28T16:28:04.565Z,14.60
2023-04-28T16:30:33.077Z,14.60
2023-04-28T16:33:01.515Z,14.50
2023-04-28T16:35:30.176Z,14.50
2023-04-28T16:37:59.654Z,14.30
2023-04-28T16:40:28.873Z,14.20
2023-04-28T16:42:57.530Z,14.10
2023-04-28T16:45:25.575Z,14.00
2023-04-28T16:47:53.701Z,13.90
2023-04-28T16:50:21.851Z,13.80
2023-04-28T16:52:50.224Z,13.70
2023-04-28T16:55:19.616Z,13.70
2023-04-28T16:57:49.433Z,13.60
2023-04-28T17:00:18.401Z,13.40
2023-04-28T17:02:46.854Z,13.30
2023-04-28T17:05:15.290Z,13.20
2023-04-28T17:07:43.820Z,13.10
2023-04-28T17:10:12.572Z,13.00
2023-04-28T17:12:43.404Z,12.90
2023-04-28T17:15:17.069Z,12.80
2023-04-28T17:17:45.810Z,12.70
2023-04-28T17:20:16.996Z,12.60
2023-04-28T17:22:45.597Z,12.40
2023-04-28T17:25:14.346Z,12.20
2023-04-28T17:27:44.326Z,12.10
2023-04-28T17:30:13.415Z,12.00
2023-04-28T17:32:44.058Z,12.00
2023-04-28T17:35:12.424Z,11.80
2023-04-28T17:37:40.559Z,11.80
2023-04-28T17:40:10.134Z,11.60
2023-04-28T17:42:38.310Z,11.50
2023-04-28T17:45:09.519Z,11.40
2023-04-28T17:47:37.722Z,11.30
2023-04-28T17:50:07.064Z,11.10
2023-04-28T17:52:36.429Z,11.00
2023-04-28T17:55:04.616Z,10.90
2023-04-28T17:57:33.342Z,10.80
2023-04-28T18:00:01.697Z,10.70
2023-04-28T18:02:41.453Z,10.60
2023-04-28T18:05:10.089Z,10.50
2023-04-28T18:07:38.073Z,10.40
2023-04-28T18:10:06.852Z,10.20
2023-04-28T18:12:34.954Z,10.10
2023-04-28T18:15:02.980Z,10.00
2023-04-28T18:17:31.354Z,9.90
2023-04-28T18:20:00.806Z,9.80
2023-04-28T18:22:29.538Z,9.70
2023-04-28T18:25:08.481Z,9.60
2023-04-28T18:27:43.875Z,9.60
2023-04-28T18:30:12.525Z,9.50
2023-04-28T18:32:40.777Z,9.40
2023-04-28T18:35:10.901Z,9.30
2023-04-28T18:37:39.137Z,9.30
2023-04-28T18:40:07.832Z,9.20
2023-04-28T18:42:36.668Z,9.10
2023-04-28T18:45:05.715Z,9.00
2023-04-28T18:47:33.919Z,9.00
2023-04-28T18:50:02.523Z,8.90
2023-04-28T18:52:31.919Z,8.80
2023-04-28T18:55:00.672Z,8.80
2023-04-28T18:57:28.766Z,8.80
2023-04-28T18:59:59.839Z,8.80
2023-04-28T19:02:28.873Z,8.80
2023-04-28T19:04:57.861Z,8.80
2023-04-28T19:07:26.357Z,8.80
2023-04-28T19:09:55.970Z,8.80
2023-04-28T19:12:26.082Z,8.70
2023-04-28T19:14:57.091Z,8.60
2023-04-28T19:17:25.637Z,8.60
2023-04-28T19:19:56.846Z,8.50
2023-04-28T19:22:31.686Z,8.40
2023-04-28T19:25:01.292Z,8.40
2023-04-28T19:27:32.288Z,8.30
2023-04-28T19:30:00.551Z,8.30
2023-04-28T19:32:28.924Z,8.30
2023-04-28T19:34:57.039Z,8.30
2023-04-28T19:37:25.166Z,8.30
2023-04-28T19:39:53.700Z,8.20
2023-04-28T19:42:23.096Z,8.10
2023-04-28T19:44:56.189Z,8.10
2023-04-28T19:47:24.802Z,8.00
2023-04-28T19:49:53.277Z,7.90
2023-04-28T19:52:21.852Z,7.90
2023-04-28T19:54:50.307Z,7.80
2023-04-28T19:57:19.623Z,7.70
2023-04-28T19:59:50.033Z,7.60
2023-04-28T20:02:18.810Z,7.60
2023-04-28T20:04:47.707Z,7.60
2023-04-28T20:07:15.751Z,7.60
2023-04-28T20:09:44.456Z,7.50
2023-04-28T20:12:12.484Z,7.40
2023-04-28T20:14:40.501Z,7.40
2023-04-28T20:17:10.189Z,7.30
2023-04-28T20:19:38.671Z,7.30
2023-04-28T20:22:08.572Z,7.20
2023-04-28T20:24:38.473Z,7.20
2023-04-28T20:27:06.547Z,7.20
2023-04-28T20:29:35.648Z,7.20
2023-04-28T20:32:04.216Z,7.10
2023-04-28T20:34:33.616Z,7.10
2023-04-28T20:37:03.456Z,7.00
2023-04-28T20:39:31.640Z,6.90
2023-04-28T20:42:00.680Z,6.90
2023-04-28T20:44:28.813Z,6.80
2023-04-28T20:46:57.261Z,6.80
2023-04-28T20:49:25.485Z,6.70
2023-04-28T20:51:54.966Z,6.70
2023-04-28T20:54:22.992Z,6.70
2023-04-28T20:56:51.113Z,6.70
2023-04-28T20:59:19.169Z,6.70
2023-04-28T21:01:47.291Z,6.70
2023-04-28T21:04:15.828Z,6.70
2023-04-28T21:06:43.994Z,6.70
2023-04-28T21:09:13.929Z,6.70
2023-04-28T21:11:42.688Z,6.70
2023-04-28T21:14:11.375Z,6.70
2023-04-28T21:16:39.416Z,6.70
2023-04-28T21:19:07.619Z,6.70
2023-04-28T21:21:35.653Z,6.70
2023-04-28T21:24:03.974Z,6.70
2023-04-28T21:26:33.436Z,6.70
2023-04-28T21:29:01.487Z,6.70
2023-04-28T21:31:30.537Z,6.70
2023-04-28T21:33:58.757Z,6.70
2023-04-28T21:36:28.267Z,6.70
2023-04-28T21:38:56.662Z,6.70
2023-04-28T21:41:25.246Z,6.70
2023-04-28T21:43:54.672Z,6.70
2023-04-28T21:46:22.840Z,6.70
2023-04-28T21:48:50.895Z,6.70
2023-04-28T21:51:19.123Z,6.60
2023-04-28T21:53:47.258Z,6.60
2023-04-28T21:56:16.131Z,6.50
2023-04-28T21:58:45.061Z,6.60
2023-04-28T22:01:18.036Z,6.50
2023-04-28T22:03:46.662Z,6.50
2023-04-28T22:06:14.946Z,6.40
2023-04-28T22:08:43.184Z,6.40
2023-04-28T22:11:11.465Z,6.30
2023-04-28T22:13:39.647Z,6.30
2023-04-28T22:16:07.685Z,6.30
2023-04-28T22:18:37.279Z,6.20
2023-04-28T22:21:05.512Z,6.10
2023-04-28T22:23:33.609Z,6.10
2023-04-28T22:26:01.661Z,6.10
2023-04-28T22:28:30.181Z,6.00
2023-04-28T22:30:58.289Z,6.00
2023-04-28T22:33:26.278Z,6.00
2023-04-28T22:35:55.609Z,6.10
2023-04-28T22:38:23.860Z,6.00
2023-04-28T22:40:52.593Z,6.00
2023-04-28T22:43:20.584Z,6.00
2023-04-28T22:45:48.598Z,6.10
2023-04-28T22:48:16.740Z,6.30
2023-04-28T22:50:47.252Z,6.40
2023-04-28T22:53:16.709Z,6.60
2023-04-28T22:55:44.823Z,6.60
2023-04-28T22:58:12.786Z,6.70
2023-04-28T23:00:41.557Z,6.80
2023-04-28T23:03:09.735Z,6.80
2023-04-28T23:05:38.846Z,7.00
2023-04-28T23:08:06.813Z,7.10
2023-04-28T23:10:36.125Z,7.20
2023-04-28T23:13:04.151Z,7.40
2023-04-28T23:15:32.102Z,7.40
2023-04-28T23:18:00.071Z,7.40
2023-04-28T23:20:28.057Z,7.40
2023-04-28T23:22:58.217Z,7.40
2023-04-28T23:25:26.345Z,7.30
2023-04-28T23:27:55.627Z,7.30
2023-04-28T23:30:23.662Z,7.40
2023-04-28T23:32:51.648Z,7.50
2023-04-28T23:35:19.698Z,7.50
2023-04-28T23:37:47.677Z,7.60
2023-04-28T23:40:15.733Z,7.60
2023-04-28T23:42:43.787Z,7.60
2023-04-28T23:45:13.301Z,7.60
2023-04-28T23:47:41.821Z,7.60
2023-04-28T23:50:10.708Z,7.60
2023-04-28T23:52:40.356Z,7.70
2023-04-28T23:55:09.795Z,7.80
2023-04-28T23:57:38.864Z,7.90
